createdAt,value
2022-11-24T00:01:51.443Z,6.40
2022-11-24T00:04:18.831Z,6.13
2022-11-24T00:06:46.255Z,5.43
2022-11-24T00:09:13.948Z,5.45
2022-11-24T00:11:41.316Z,5.18
2022-11-24T00:14:09.226Z,5.82
2022-11-24T00:16:37.558Z,5.65
2022-11-24T00:19:06.836Z,5.57
2022-11-24T00:21:34.200Z,6.05
2022-11-24T00:24:01.645Z,4.47
2022-11-24T00:26:30.598Z,5.68
2022-11-24T00:29:00.519Z,4.47
2022-11-24T00:31:38.578Z,4.60
2022-11-24T00:34:07.405Z,5.55
2022-11-24T00:36:35.534Z,5.20
2022-11-24T00:39:04.764Z,5.45
2022-11-24T00:41:32.642Z,5.30
2022-11-24T00:44:00.149Z,5.55
2022-11-24T00:46:28.143Z,5.40
2022-11-24T00:48:55.995Z,5.60
2022-11-24T00:51:24.675Z,6.20
2022-11-24T00:53:53.517Z,6.55
2022-11-24T00:56:21.015Z,6.60
2022-11-24T00:58:48.626Z,5.72
2022-11-24T01:01:18.259Z,5.88
2022-11-24T01:03:47.083Z,6.43
2022-11-24T01:06:19.294Z,6.55
2022-11-24T01:08:46.979Z,6.05
2022-11-24T01:11:16.410Z,5.57
2022-11-24T01:13:45.205Z,5.38
2022-11-24T01:16:16.949Z,5.78
2022-11-24T01:18:44.668Z,6.68
2022-11-24T01:21:12.057Z,5.93
2022-11-24T01:23:39.496Z,5.57
2022-11-24T01:26:07.841Z,7.00
2022-11-24T01:28:35.622Z,5.88
2022-11-24T01:31:04.258Z,6.47
2022-11-24T01:33:32.183Z,6.05
2022-11-24T01:35:59.727Z,5.47
2022-11-24T01:38:27.784Z,8.02
2022-11-24T01:41:05.999Z,5.45
2022-11-24T01:43:33.931Z,5.30
2022-11-24T01:46:20.155Z,7.35
2022-11-24T01:48:50.030Z,9.60
2022-11-24T01:51:27.854Z,9.15
2022-11-24T01:54:15.281Z,8.68
2022-11-24T01:56:43.629Z,6.20
2022-11-24T01:59:13.147Z,7.10
2022-11-24T02:01:40.651Z,6.07
2022-11-24T02:04:10.032Z,6.25
2022-11-24T02:06:38.099Z,5.35
2022-11-24T02:09:09.450Z,5.78
2022-11-24T02:11:40.580Z,4.85
2022-11-24T02:14:08.992Z,5.10
2022-11-24T02:16:37.155Z,5.55
2022-11-24T02:19:07.906Z,4.72
2022-11-24T02:21:35.358Z,5.50
2022-11-24T02:24:29.136Z,5.70
2022-11-24T02:26:56.661Z,6.05
2022-11-24T02:29:24.333Z,5.07
2022-11-24T02:32:00.391Z,5.63
2022-11-24T02:34:27.857Z,5.15
2022-11-24T02:36:55.233Z,5.45
2022-11-24T02:39:23.093Z,5.40
2022-11-24T02:41:55.558Z,5.38
2022-11-24T02:44:25.772Z,5.03
2022-11-24T02:47:02.665Z,6.05
2022-11-24T02:49:30.265Z,5.75
2022-11-24T02:51:57.795Z,6.18
2022-11-24T02:54:25.213Z,5.03
2022-11-24T02:56:52.720Z,5.30
2022-11-24T02:59:20.446Z,5.80
2022-11-24T03:01:47.920Z,6.47
2022-11-24T03:04:15.628Z,7.20
2022-11-24T03:06:43.644Z,6.88
2022-11-24T03:09:11.871Z,8.80
2022-11-24T03:11:39.887Z,7.38
2022-11-24T03:14:07.604Z,7.72
2022-11-24T03:16:35.156Z,6.72
2022-11-24T03:19:03.466Z,5.95
2022-11-24T03:21:30.856Z,5.68
2022-11-24T03:23:58.289Z,5.60
2022-11-24T03:26:26.396Z,5.90
2022-11-24T03:28:55.428Z,5.28
2022-11-24T03:31:23.581Z,5.40
2022-11-24T03:33:51.040Z,4.80
2022-11-24T03:36:18.509Z,4.88
2022-11-24T03:38:45.980Z,5.45
2022-11-24T03:41:13.578Z,4.32
2022-11-24T03:43:44.002Z,6.15
2022-11-24T03:46:12.732Z,4.25
2022-11-24T03:48:40.408Z,5.80
2022-11-24T03:51:07.835Z,5.07
2022-11-24T03:53:35.352Z,4.85
2022-11-24T03:56:02.837Z,5.38
2022-11-24T03:58:30.803Z,5.10
2022-11-24T04:00:58.432Z,4.75
2022-11-24T04:03:25.865Z,5.00
2022-11-24T04:05:53.291Z,5.05
2022-11-24T04:08:20.947Z,5.50
2022-11-24T04:10:52.655Z,4.90
2022-11-24T04:13:21.305Z,4.47
2022-11-24T04:15:48.862Z,5.45
2022-11-24T04:18:16.658Z,5.45
2022-11-24T04:20:44.373Z,5.47
2022-11-24T04:23:12.110Z,5.85
2022-11-24T04:25:39.675Z,5.53
2022-11-24T04:28:07.097Z,5.97
2022-11-24T04:30:34.788Z,7.05
2022-11-24T04:33:02.144Z,5.18
2022-11-24T04:35:29.624Z,5.88
2022-11-24T04:37:57.082Z,5.60
2022-11-24T04:40:24.618Z,6.07
2022-11-24T04:42:55.559Z,5.70
2022-11-24T04:45:23.428Z,5.85
2022-11-24T04:47:50.778Z,6.13
2022-11-24T04:50:18.564Z,5.45
2022-11-24T04:52:46.258Z,7.60
2022-11-24T04:55:13.872Z,7.35
2022-11-24T04:57:41.288Z,5.80
2022-11-24T05:00:09.320Z,6.15
2022-11-24T05:02:36.711Z,6.60
2022-11-24T05:05:04.333Z,6.10
2022-11-24T05:07:31.822Z,5.07
2022-11-24T05:10:17.778Z,6.30
2022-11-24T05:12:51.038Z,6.60
2022-11-24T05:15:18.711Z,6.03
2022-11-24T05:17:46.010Z,6.30
2022-11-24T05:20:13.371Z,6.72
2022-11-24T05:22:40.732Z,7.10
2022-11-24T05:25:08.147Z,7.10
2022-11-24T05:27:35.675Z,6.22
2022-11-24T05:30:03.059Z,6.90
2022-11-24T05:32:30.360Z,6.57
2022-11-24T05:34:58.370Z,6.43
2022-11-24T05:37:25.962Z,6.47
2022-11-24T05:39:54.736Z,6.40
2022-11-24T05:42:46.177Z,6.43
2022-11-24T05:45:18.987Z,6.50
2022-11-24T05:47:46.601Z,6.35
2022-11-24T05:50:14.775Z,6.93
2022-11-24T05:52:42.222Z,7.72
2022-11-24T05:55:10.334Z,6.13
2022-11-24T05:57:37.717Z,6.82
2022-11-24T06:00:05.937Z,6.88
2022-11-24T06:02:33.528Z,6.60
2022-11-24T06:05:00.882Z,5.97
2022-11-24T06:07:28.291Z,6.60
2022-11-24T06:09:55.725Z,7.03
2022-11-24T06:12:23.108Z,7.32
2022-11-24T06:14:50.440Z,5.85
2022-11-24T06:17:17.774Z,6.15
2022-11-24T06:19:47.967Z,7.35
2022-11-24T06:22:15.456Z,6.05
2022-11-24T06:24:42.808Z,6.13
2022-11-24T06:27:10.347Z,8.02
2022-11-24T06:29:37.638Z,7.13
2022-11-24T06:32:05.423Z,7.55
2022-11-24T06:34:33.134Z,7.65
2022-11-24T06:37:00.656Z,6.82
2022-11-24T06:39:28.040Z,7.40
2022-11-24T06:41:55.548Z,6.90
2022-11-24T06:44:22.875Z,6.47
2022-11-24T06:46:50.329Z,7.35
2022-11-24T06:49:17.727Z,6.68
2022-11-24T06:51:45.304Z,6.80
2022-11-24T06:54:15.321Z,6.15
2022-11-24T06:56:42.670Z,6.20
2022-11-24T06:59:16.589Z,6.13
2022-11-24T07:01:43.992Z,7.60
2022-11-24T07:04:11.658Z,6.70
2022-11-24T07:06:41.597Z,6.60
2022-11-24T07:09:09.777Z,7.15
2022-11-24T07:11:37.288Z,7.63
2022-11-24T07:14:04.834Z,6.82
2022-11-24T07:16:32.672Z,7.43
2022-11-24T07:19:00.516Z,7.22
2022-11-24T07:21:28.633Z,7.72
2022-11-24T07:23:57.080Z,8.35
2022-11-24T07:26:25.193Z,7.63
2022-11-24T07:28:52.548Z,8.10
2022-11-24T07:31:21.122Z,8.70
2022-11-24T07:33:49.885Z,11.32
2022-11-24T07:36:17.206Z,11.73
2022-11-24T07:38:44.539Z,9.20
2022-11-24T07:41:12.767Z,9.20
2022-11-24T07:43:40.543Z,14.18
2022-11-24T07:46:09.341Z,15.25
2022-11-24T07:48:36.901Z,15.70
2022-11-24T07:51:05.028Z,15.70
2022-11-24T07:53:33.163Z,15.18
2022-11-24T07:56:01.607Z,15.93
2022-11-24T07:58:32.582Z,14.57
2022-11-24T08:01:00.953Z,16.38
2022-11-24T08:03:28.549Z,15.38
2022-11-24T08:06:23.237Z,13.07
2022-11-24T08:08:47.845Z,11.95
2022-11-24T08:11:16.266Z,12.18
2022-11-24T08:13:43.875Z,11.25
2022-11-24T08:16:12.313Z,9.63
2022-11-24T08:18:40.151Z,9.10
2022-11-24T08:21:08.409Z,9.38
2022-11-24T08:23:35.834Z,10.02
2022-11-24T08:26:12.055Z,10.25
2022-11-24T08:28:39.550Z,10.55
2022-11-24T08:31:09.213Z,10.82
2022-11-24T08:33:37.146Z,10.88
2022-11-24T08:36:05.438Z,10.50
2022-11-24T08:38:32.789Z,11.38
2022-11-24T08:41:07.563Z,11.52
2022-11-24T08:43:34.924Z,11.50
2022-11-24T08:46:09.473Z,11.18
2022-11-24T08:48:37.499Z,10.68
2022-11-24T08:51:09.270Z,10.80
2022-11-24T08:53:36.640Z,10.38
2022-11-24T08:56:04.918Z,10.60
2022-11-24T08:58:32.834Z,10.60
2022-11-24T09:01:06.778Z,9.90
2022-11-24T09:03:34.870Z,9.30
2022-11-24T09:06:02.897Z,11.93
2022-11-24T09:08:30.924Z,12.45
2022-11-24T09:11:05.905Z,12.13
2022-11-24T09:13:33.289Z,14.25
2022-11-24T09:16:14.107Z,14.23
2022-11-24T09:18:42.107Z,13.10
2022-11-24T09:21:12.489Z,13.48
2022-11-24T09:23:40.339Z,12.85
2022-11-24T09:26:15.408Z,12.20
2022-11-24T09:28:43.207Z,13.63
2022-11-24T09:31:12.492Z,12.23
2022-11-24T09:33:40.089Z,12.07
2022-11-24T09:36:07.863Z,9.98
2022-11-24T09:38:35.244Z,9.88
2022-11-24T09:41:21.269Z,9.27
2022-11-24T09:43:48.577Z,8.93
2022-11-24T09:46:21.220Z,9.85
2022-11-24T09:48:50.371Z,9.52
2022-11-24T09:51:18.662Z,12.27
2022-11-24T09:54:02.744Z,24.60
2022-11-24T09:56:32.109Z,20.08
2022-11-24T09:59:22.454Z,37.40
2022-11-24T10:01:51.069Z,22.33
2022-11-24T10:04:27.950Z,28.80
2022-11-24T10:07:10.262Z,19.70
2022-11-24T10:09:54.204Z,16.98
2022-11-24T10:12:40.030Z,12.50
2022-11-24T10:15:24.693Z,11.23
2022-11-24T10:17:57.917Z,9.48
2022-11-24T10:20:31.114Z,8.45
2022-11-24T10:22:58.376Z,7.40
2022-11-24T10:25:26.847Z,6.93
2022-11-24T10:28:00.192Z,6.78
2022-11-24T10:30:27.896Z,6.07
2022-11-24T10:33:07.191Z,5.90
2022-11-24T10:35:39.797Z,6.63
2022-11-24T10:38:22.394Z,5.95
2022-11-24T10:40:58.185Z,5.85
2022-11-24T10:43:28.085Z,7.90
2022-11-24T10:46:11.207Z,6.88
2022-11-24T10:48:41.873Z,6.85
2022-11-24T10:51:25.916Z,7.78
2022-11-24T10:53:59.691Z,7.35
2022-11-24T10:56:27.175Z,6.53
2022-11-24T10:58:54.579Z,7.18
2022-11-24T11:01:28.683Z,6.82
2022-11-24T11:04:00.171Z,6.57
2022-11-24T11:06:28.745Z,6.18
2022-11-24T11:09:17.799Z,8.27
2022-11-24T11:11:47.130Z,5.65
2022-11-24T11:14:29.564Z,3.97
2022-11-24T11:17:00.538Z,4.35
2022-11-24T11:19:48.416Z,4.25
2022-11-24T11:22:20.205Z,2.97
2022-11-24T11:24:48.189Z,4.03
2022-11-24T11:27:18.260Z,4.22
2022-11-24T11:35:20.679Z,3.15
2022-11-24T11:37:49.420Z,4.03
2022-11-24T11:40:18.477Z,3.33
2022-11-24T11:43:04.541Z,3.03
2022-11-24T11:45:36.487Z,2.95
2022-11-24T11:48:03.956Z,3.38
2022-11-24T11:51:21.721Z,3.42
2022-11-24T11:53:47.382Z,2.70
2022-11-24T11:56:20.876Z,3.25
2022-11-24T11:58:50.977Z,2.88
2022-11-24T12:01:30.589Z,2.38
2022-11-24T12:04:16.563Z,2.20
2022-11-24T12:06:53.543Z,2.75
2022-11-24T12:09:41.534Z,2.45
2022-11-24T12:12:18.354Z,1.88
2022-11-24T12:14:48.933Z,2.30
2022-11-24T12:17:36.684Z,2.45
2022-11-24T12:20:04.006Z,2.50
2022-11-24T12:22:37.457Z,2.35
2022-11-24T12:25:23.750Z,2.75
2022-11-24T12:27:54.271Z,2.50
2022-11-24T12:30:22.972Z,2.47
2022-11-24T12:32:50.263Z,1.95
2022-11-24T12:35:31.607Z,1.52
2022-11-24T12:38:01.964Z,1.90
2022-11-24T12:40:48.421Z,2.00
2022-11-24T12:43:31.455Z,1.83
2022-11-24T12:46:04.949Z,1.50
2022-11-24T12:49:01.757Z,3.05
2022-11-24T12:51:40.241Z,1.70
2022-11-24T12:54:11.475Z,1.70
2022-11-24T12:56:44.372Z,1.83
2022-11-24T12:59:30.881Z,1.77
2022-11-24T13:02:18.242Z,1.67
2022-11-24T13:04:54.793Z,1.38
2022-11-24T13:07:27.984Z,1.30
2022-11-24T13:10:14.243Z,1.77
2022-11-24T13:13:00.390Z,2.33
2022-11-24T13:15:45.055Z,1.48
2022-11-24T13:18:31.847Z,1.55
2022-11-24T13:20:59.503Z,22.63
2022-11-24T13:23:27.660Z,4.70
2022-11-24T13:26:13.886Z,3.78
2022-11-24T13:29:24.730Z,2.45
2022-11-24T13:31:53.117Z,2.90
2022-11-24T13:34:39.136Z,4.47
2022-11-24T13:37:34.857Z,4.53
2022-11-24T13:40:12.445Z,3.42
2022-11-24T13:42:58.164Z,5.60
2022-11-24T13:47:52.782Z,2.75
2022-11-24T13:50:21.560Z,1.85
2022-11-24T13:53:00.399Z,2.65
2022-11-24T13:55:33.299Z,2.03
2022-11-24T13:58:03.494Z,1.83
2022-11-24T14:00:32.465Z,1.95
2022-11-24T14:03:21.615Z,1.70
2022-11-24T14:05:52.794Z,2.25
2022-11-24T14:08:22.819Z,2.33
2022-11-24T14:10:50.383Z,4.45
2022-11-24T14:13:18.751Z,2.67
2022-11-24T14:15:56.326Z,3.45
2022-11-24T14:18:24.025Z,1.70
2022-11-24T14:20:51.381Z,1.30
2022-11-24T14:23:18.661Z,2.28
2022-11-24T14:25:52.701Z,2.03
2022-11-24T14:28:27.568Z,1.98
2022-11-24T14:31:08.359Z,1.55
2022-11-24T14:33:36.118Z,2.05
2022-11-24T14:36:03.529Z,2.17
2022-11-24T14:38:30.922Z,4.63
2022-11-24T14:40:58.375Z,2.03
2022-11-24T14:43:32.758Z,1.88
2022-11-24T14:46:04.464Z,3.43
2022-11-24T14:48:33.701Z,2.60
2022-11-24T14:51:20.452Z,3.72
2022-11-24T14:53:49.651Z,2.72
2022-11-24T14:56:24.296Z,3.00
2022-11-24T14:58:51.811Z,2.92
2022-11-24T15:01:28.525Z,3.63
2022-11-24T15:04:32.383Z,2.95
2022-11-24T15:09:40.058Z,2.85
2022-11-24T15:12:19.721Z,2.67
2022-11-24T15:14:50.825Z,3.42
2022-11-24T15:17:23.142Z,3.58
2022-11-24T15:19:52.526Z,3.97
2022-11-24T15:22:34.934Z,4.03
2022-11-24T15:25:02.842Z,4.47
2022-11-24T15:27:30.369Z,3.63
2022-11-24T15:29:57.700Z,4.75
2022-11-24T15:32:26.793Z,3.30
2022-11-24T15:34:54.236Z,3.05
2022-11-24T15:37:21.628Z,2.60
2022-11-24T15:39:48.950Z,2.50
2022-11-24T15:42:16.305Z,2.35
2022-11-24T15:44:43.906Z,2.45
2022-11-24T15:47:11.472Z,2.22
2022-11-24T15:49:38.972Z,2.40
2022-11-24T15:52:07.068Z,2.00
2022-11-24T15:54:36.172Z,1.63
2022-11-24T15:57:03.830Z,1.70
2022-11-24T15:59:31.341Z,1.50
2022-11-24T16:01:58.807Z,1.70
2022-11-24T16:04:26.292Z,1.83
2022-11-24T16:06:53.707Z,1.52
2022-11-24T16:09:21.133Z,1.95
2022-11-24T16:11:48.516Z,2.20
2022-11-24T16:14:15.994Z,4.28
2022-11-24T16:16:43.632Z,3.08
2022-11-24T16:19:11.462Z,2.85
2022-11-24T16:21:38.841Z,2.90
2022-11-24T16:24:06.399Z,3.30
2022-11-24T16:26:33.739Z,4.70
2022-11-24T16:29:01.411Z,3.80
2022-11-24T16:31:28.811Z,3.42
2022-11-24T16:33:56.452Z,4.82
2022-11-24T16:36:23.841Z,6.10
2022-11-24T16:38:51.507Z,6.57
2022-11-24T16:41:18.903Z,5.95
2022-11-24T16:43:46.501Z,5.80
2022-11-24T16:46:16.740Z,5.63
2022-11-24T16:48:44.704Z,5.50
2022-11-24T16:51:12.388Z,5.35
2022-11-24T16:53:39.977Z,5.15
2022-11-24T16:56:07.600Z,4.07
2022-11-24T16:58:35.115Z,4.32
2022-11-24T17:01:06.503Z,5.72
2022-11-24T17:03:34.211Z,6.57
2022-11-24T17:06:02.335Z,5.18
2022-11-24T17:08:33.550Z,5.20
2022-11-24T17:11:21.128Z,5.47
2022-11-24T17:13:49.381Z,5.05
2022-11-24T17:16:18.419Z,4.45
2022-11-24T17:18:45.942Z,4.20
2022-11-24T17:21:14.940Z,4.38
2022-11-24T17:23:42.754Z,4.00
2022-11-24T17:26:14.504Z,3.92
2022-11-24T17:28:42.394Z,4.68
2022-11-24T17:31:10.602Z,4.00
2022-11-24T17:33:37.981Z,5.38
2022-11-24T17:36:05.986Z,5.60
2022-11-24T17:38:35.440Z,4.63
2022-11-24T17:41:02.908Z,4.82
2022-11-24T17:43:30.213Z,4.70
2022-11-24T17:45:59.255Z,5.55
2022-11-24T17:48:26.748Z,6.70
2022-11-24T17:51:04.661Z,9.10
2022-11-24T17:53:32.130Z,7.68
2022-11-24T17:56:00.193Z,11.65
2022-11-24T17:58:28.482Z,10.35
2022-11-24T18:00:56.103Z,10.25
2022-11-24T18:03:23.678Z,11.35
2022-11-24T18:05:51.051Z,9.35
2022-11-24T18:08:18.394Z,8.65
2022-11-24T18:10:45.908Z,7.78
2022-11-24T18:13:27.641Z,6.72
2022-11-24T18:16:01.589Z,5.45
2022-11-24T18:18:28.904Z,6.07
2022-11-24T18:21:00.422Z,7.00
2022-11-24T18:23:28.298Z,8.45
2022-11-24T18:25:56.223Z,7.35
2022-11-24T18:28:23.639Z,7.15
2022-11-24T18:30:51.152Z,8.82
2022-11-24T18:33:18.742Z,8.75
2022-11-24T18:35:56.086Z,8.55
2022-11-24T18:38:23.430Z,7.68
2022-11-24T18:40:54.703Z,7.97
2022-11-24T18:43:22.512Z,7.55
2022-11-24T18:45:50.191Z,6.68
2022-11-24T18:48:17.587Z,8.27
2022-11-24T18:50:45.095Z,8.05
2022-11-24T18:53:12.404Z,8.73
2022-11-24T18:55:39.760Z,7.95
2022-11-24T18:58:07.051Z,7.32
2022-11-24T19:00:34.853Z,8.60
2022-11-24T19:03:02.188Z,8.00
2022-11-24T19:05:29.563Z,8.10
2022-11-24T19:07:57.027Z,6.05
2022-11-24T19:10:24.436Z,6.10
2022-11-24T19:12:51.780Z,7.63
2022-11-24T19:15:19.125Z,8.82
2022-11-24T19:17:47.540Z,7.15
2022-11-24T19:20:14.981Z,6.72
2022-11-24T19:22:42.664Z,9.65
2022-11-24T19:25:10.165Z,10.32
2022-11-24T19:27:37.488Z,8.43
2022-11-24T19:30:04.984Z,7.65
2022-11-24T19:32:32.793Z,7.72
2022-11-24T19:35:00.137Z,9.38
2022-11-24T19:37:29.054Z,11.27
2022-11-24T19:39:56.396Z,15.00
2022-11-24T19:42:23.743Z,13.35
2022-11-24T19:44:56.227Z,11.45
2022-11-24T19:47:24.100Z,11.18
2022-11-24T19:49:51.730Z,11.90
2022-11-24T19:52:19.129Z,12.02
2022-11-24T19:54:47.183Z,10.77
2022-11-24T19:57:14.625Z,10.32
2022-11-24T19:59:42.549Z,10.65
2022-11-24T20:02:10.173Z,11.43
2022-11-24T20:04:39.969Z,9.35
2022-11-24T20:07:07.385Z,9.32
2022-11-24T20:09:34.882Z,8.82
2022-11-24T20:12:02.395Z,8.90
2022-11-24T20:14:29.752Z,8.40
2022-11-24T20:16:57.201Z,8.07
2022-11-24T20:19:26.729Z,7.43
2022-11-24T20:21:54.257Z,6.25
2022-11-24T20:24:23.391Z,6.65
2022-11-24T20:26:52.384Z,5.63
2022-11-24T20:29:19.848Z,6.32
2022-11-24T20:31:48.458Z,5.57
2022-11-24T20:34:16.379Z,6.70
2022-11-24T20:36:44.805Z,9.45
2022-11-24T20:39:20.170Z,5.78
2022-11-24T20:44:15.817Z,6.80
2022-11-24T20:46:44.077Z,7.18
2022-11-24T20:49:12.899Z,7.05
2022-11-24T20:51:43.977Z,6.93
2022-11-24T20:54:13.247Z,8.25
2022-11-24T20:56:42.289Z,6.65
2022-11-24T20:59:11.332Z,6.78
2022-11-24T21:01:39.693Z,6.93
2022-11-24T21:04:09.253Z,7.13
2022-11-24T21:06:37.085Z,6.25
2022-11-24T21:09:05.161Z,7.88
2022-11-24T21:11:32.952Z,8.38
2022-11-24T21:14:01.177Z,6.68
2022-11-24T21:16:30.160Z,8.70
2022-11-24T21:18:59.102Z,8.30
2022-11-24T21:21:28.691Z,8.82
2022-11-24T21:23:56.085Z,8.85
2022-11-24T21:26:23.358Z,7.45
2022-11-24T21:28:50.776Z,7.90
2022-11-24T21:31:19.848Z,7.88
2022-11-24T21:33:48.163Z,7.22
2022-11-24T21:36:17.817Z,7.90
2022-11-24T21:38:45.675Z,7.55
2022-11-24T21:41:14.111Z,8.23
2022-11-24T21:43:41.872Z,8.60
2022-11-24T21:46:10.816Z,8.70
2022-11-24T21:48:39.049Z,7.85
2022-11-24T21:51:07.894Z,8.40
2022-11-24T21:53:36.797Z,9.40
2022-11-24T21:56:09.924Z,8.63
2022-11-24T21:58:37.570Z,8.23
2022-11-24T22:01:05.796Z,9.52
2022-11-24T22:03:33.396Z,9.10
2022-11-24T22:06:01.234Z,7.93
2022-11-24T22:08:29.419Z,7.97
2022-11-24T22:11:03.860Z,8.63
2022-11-24T22:13:31.235Z,7.03
2022-11-24T22:16:05.881Z,6.25
2022-11-24T22:18:34.553Z,6.45
2022-11-24T22:21:03.108Z,7.18
2022-11-24T22:23:34.096Z,6.35
2022-11-24T22:26:27.843Z,5.75
2022-11-24T22:28:55.811Z,5.50
2022-11-24T22:31:25.080Z,6.00
2022-11-24T22:33:52.629Z,5.95
2022-11-24T22:36:23.531Z,6.25
2022-11-24T22:38:55.240Z,5.45
2022-11-24T22:41:22.894Z,5.13
2022-11-24T22:43:50.399Z,5.00
2022-11-24T22:46:19.055Z,4.78
2022-11-24T22:48:47.268Z,5.22
2022-11-24T22:51:15.719Z,5.18
2022-11-24T22:53:47.137Z,5.18
2022-11-24T22:56:14.553Z,4.63
2022-11-24T22:58:42.009Z,5.00
2022-11-24T23:01:13.847Z,4.75
2022-11-24T23:03:41.851Z,4.72
2022-11-24T23:06:12.288Z,4.97
2022-11-24T23:08:39.650Z,4.70
2022-11-24T23:11:08.479Z,4.53
2022-11-24T23:13:36.122Z,5.20
2022-11-24T23:16:03.541Z,5.07
2022-11-24T23:18:31.297Z,4.72
2022-11-24T23:21:04.546Z,5.30
2022-11-24T23:23:31.843Z,4.55
2022-11-24T23:26:02.853Z,4.15
2022-11-24T23:28:30.229Z,5.05
2022-11-24T23:31:01.688Z,4.50
2022-11-24T23:33:30.365Z,4.30
2022-11-24T23:36:00.597Z,5.07
2022-11-24T23:38:32.827Z,5.82
2022-11-24T23:41:01.265Z,5.93
2022-11-24T23:43:28.605Z,5.97
2022-11-24T23:45:56.091Z,6.32
2022-11-24T23:48:23.452Z,4.68
2022-11-24T23:50:50.815Z,5.45
2022-11-24T23:53:18.091Z,6.97
2022-11-24T23:55:52.790Z,5.97
2022-11-24T23:58:20.124Z,5.60
